sensor_id;sensor_type;location;lat;lon;timestamp;temperature;humidity
64032;DHT22;50278;47.796;11.968;2022-10-31T00:00:57;8.90;118.99
64032;DHT22;50278;47.796;11.968;2022-10-31T00:03:23;8.91;118.99
64032;DHT22;50278;47.796;11.968;2022-10-31T00:05:49;8.85;118.99
64032;DHT22;50278;47.796;11.968;2022-10-31T00:08:16;8.86;118.99
64032;DHT22;50278;47.796;11.968;2022-10-31T00:10:43;8.82;118.99
64032;DHT22;50278;47.796;11.968;2022-10-31T00:13:09;8.80;118.99
64032;DHT22;50278;47.796;11.968;2022-10-31T00:15:36;8.65;118.99
64032;DHT22;50278;47.796;11.968;2022-10-31T00:18:03;8.62;118.99
64032;DHT22;50278;47.796;11.968;2022-10-31T00:20:29;8.59;118.99
64032;DHT22;50278;47.796;11.968;2022-10-31T00:22:59;8.57;118.99
64032;DHT22;50278;47.796;11.968;2022-10-31T00:25:26;8.64;118.99
64032;DHT22;50278;47.796;11.968;2022-10-31T00:27:52;8.66;118.99
64032;DHT22;50278;47.796;11.968;2022-10-31T00:30:17;8.66;118.99
64032;DHT22;50278;47.796;11.968;2022-10-31T00:32:43;8.61;118.99
64032;DHT22;50278;47.796;11.968;2022-10-31T00:35:08;8.60;118.99
64032;DHT22;50278;47.796;11.968;2022-10-31T00:37:34;8.57;118.99
64032;DHT22;50278;47.796;11.968;2022-10-31T00:40:00;8.58;118.99
64032;DHT22;50278;47.796;11.968;2022-10-31T00:42:25;8.61;118.99
64032;DHT22;50278;47.796;11.968;2022-10-31T00:44:51;8.71;118.99
64032;DHT22;50278;47.796;11.968;2022-10-31T00:47:16;8.79;118.99
64032;DHT22;50278;47.796;11.968;2022-10-31T00:49:42;8.86;118.99
64032;DHT22;50278;47.796;11.968;2022-10-31T00:52:07;8.95;118.99
64032;DHT22;50278;47.796;11.968;2022-10-31T00:54:33;9.00;118.99
64032;DHT22;50278;47.796;11.968;2022-10-31T00:56:58;8.95;118.99
64032;DHT22;50278;47.796;11.968;2022-10-31T00:59:24;8.94;118.99
64032;DHT22;50278;47.796;11.968;2022-10-31T01:01:49;8.93;118.99
64032;DHT22;50278;47.796;11.968;2022-10-31T01:04:15;8.87;118.99
64032;DHT22;50278;47.796;11.968;2022-10-31T01:06:41;8.80;118.99
64032;DHT22;50278;47.796;11.968;2022-10-31T01:09:06;8.77;118.99
64032;DHT22;50278;47.796;11.968;2022-10-31T01:11:32;8.86;118.99
64032;DHT22;50278;47.796;11.968;2022-10-31T01:13:57;9.02;118.99
64032;DHT22;50278;47.796;11.968;2022-10-31T01:16:26;8.93;118.99
64032;DHT22;50278;47.796;11.968;2022-10-31T01:18:52;8.91;118.99
64032;DHT22;50278;47.796;11.968;2022-10-31T01:21:21;8.87;118.99
64032;DHT22;50278;47.796;11.968;2022-10-31T01:23:48;8.79;118.99
64032;DHT22;50278;47.796;11.968;2022-10-31T01:26:17;8.72;118.99
64032;DHT22;50278;47.796;11.968;2022-10-31T01:29:04;8.70;118.99
64032;DHT22;50278;47.796;11.968;2022-10-31T01:31:32;8.70;118.99
64032;DHT22;50278;47.796;11.968;2022-10-31T01:33:58;8.70;118.99
64032;DHT22;50278;47.796;11.968;2022-10-31T01:36:29;8.64;118.99
64032;DHT22;50278;47.796;11.968;2022-10-31T01:38:58;8.66;118.99
64032;DHT22;50278;47.796;11.968;2022-10-31T01:41:29;8.58;118.99
64032;DHT22;50278;47.796;11.968;2022-10-31T01:46:26;8.46;118.99
64032;DHT22;50278;47.796;11.968;2022-10-31T01:48:53;8.48;118.99
64032;DHT22;50278;47.796;11.968;2022-10-31T01:51:23;8.49;118.99
64032;DHT22;50278;47.796;11.968;2022-10-31T01:53:50;8.45;118.99
64032;DHT22;50278;47.796;11.968;2022-10-31T01:56:18;8.45;118.99
64032;DHT22;50278;47.796;11.968;2022-10-31T01:58:45;8.47;118.99
64032;DHT22;50278;47.796;11.968;2022-10-31T02:01:12;8.45;118.99
64032;DHT22;50278;47.796;11.968;2022-10-31T02:03:39;8.44;118.99
64032;DHT22;50278;47.796;11.968;2022-10-31T02:06:10;8.52;118.99
64032;DHT22;50278;47.796;11.968;2022-10-31T02:08:39;8.57;118.99
64032;DHT22;50278;47.796;11.968;2022-10-31T02:11:06;8.61;118.99
64032;DHT22;50278;47.796;11.968;2022-10-31T02:13:33;8.61;118.99
64032;DHT22;50278;47.796;11.968;2022-10-31T02:15:59;8.58;118.99
64032;DHT22;50278;47.796;11.968;2022-10-31T02:18:29;8.61;118.99
64032;DHT22;50278;47.796;11.968;2022-10-31T02:24:00;8.62;118.99
64032;DHT22;50278;47.796;11.968;2022-10-31T02:26:44;8.51;118.99
64032;DHT22;50278;47.796;11.968;2022-10-31T02:35:09;8.46;118.99
64032;DHT22;50278;47.796;11.968;2022-10-31T02:37:49;8.43;118.99
64032;DHT22;50278;47.796;11.968;2022-10-31T02:43:12;8.39;118.99
64032;DHT22;50278;47.796;11.968;2022-10-31T02:45:58;8.39;118.99
64032;DHT22;50278;47.796;11.968;2022-10-31T02:48:27;8.41;118.99
64032;DHT22;50278;47.796;11.968;2022-10-31T02:51:00;8.41;118.99
64032;DHT22;50278;47.796;11.968;2022-10-31T02:53:26;8.38;118.99
64032;DHT22;50278;47.796;11.968;2022-10-31T02:56:05;8.42;118.99
64032;DHT22;50278;47.796;11.968;2022-10-31T02:58:37;8.38;118.99
64032;DHT22;50278;47.796;11.968;2022-10-31T03:08:50;8.45;118.99
64032;DHT22;50278;47.796;11.968;2022-10-31T03:11:23;8.41;118.99
64032;DHT22;50278;47.796;11.968;2022-10-31T03:14:00;8.41;118.99
64032;DHT22;50278;47.796;11.968;2022-10-31T03:16:41;8.34;118.99
64032;DHT22;50278;47.796;11.968;2022-10-31T03:19:25;8.38;118.99
64032;DHT22;50278;47.796;11.968;2022-10-31T03:21:56;8.38;118.99
64032;DHT22;50278;47.796;11.968;2022-10-31T03:24:27;8.32;118.99
64032;DHT22;50278;47.796;11.968;2022-10-31T03:26:55;8.27;118.99
64032;DHT22;50278;47.796;11.968;2022-10-31T03:29:26;8.29;118.99
64032;DHT22;50278;47.796;11.968;2022-10-31T03:32:03;8.36;118.99
64032;DHT22;50278;47.796;11.968;2022-10-31T03:34:35;8.46;118.99
64032;DHT22;50278;47.796;11.968;2022-10-31T03:37:04;8.58;118.99
64032;DHT22;50278;47.796;11.968;2022-10-31T03:39:32;8.57;118.99
64032;DHT22;50278;47.796;11.968;2022-10-31T03:42:05;8.64;118.99
64032;DHT22;50278;47.796;11.968;2022-10-31T03:44:34;8.51;118.99
64032;DHT22;50278;47.796;11.968;2022-10-31T03:47:02;8.62;118.99
64032;DHT22;50278;47.796;11.968;2022-10-31T03:49:29;8.65;118.99
64032;DHT22;50278;47.796;11.968;2022-10-31T03:52:22;8.61;118.99
64032;DHT22;50278;47.796;11.968;2022-10-31T03:54:58;8.46;118.99
64032;DHT22;50278;47.796;11.968;2022-10-31T03:58:07;8.30;118.99
64032;DHT22;50278;47.796;11.968;2022-10-31T04:00:35;8.13;118.99
64032;DHT22;50278;47.796;11.968;2022-10-31T04:03:14;8.03;118.99
64032;DHT22;50278;47.796;11.968;2022-10-31T04:05:45;7.97;118.99
64032;DHT22;50278;47.796;11.968;2022-10-31T04:08:15;7.96;118.99
64032;DHT22;50278;47.796;11.968;2022-10-31T04:10:44;7.99;118.99
64032;DHT22;50278;47.796;11.968;2022-10-31T04:13:16;8.01;118.99
64032;DHT22;50278;47.796;11.968;2022-10-31T04:15:46;7.98;118.99
64032;DHT22;50278;47.796;11.968;2022-10-31T04:18:13;7.97;118.99
64032;DHT22;50278;47.796;11.968;2022-10-31T04:20:41;7.91;118.99
64032;DHT22;50278;47.796;11.968;2022-10-31T04:23:22;7.92;118.99
64032;DHT22;50278;47.796;11.968;2022-10-31T04:25:50;7.91;118.99
64032;DHT22;50278;47.796;11.968;2022-10-31T04:28:16;7.89;118.99
64032;DHT22;50278;47.796;11.968;2022-10-31T04:30:42;7.85;118.99
64032;DHT22;50278;47.796;11.968;2022-10-31T04:33:08;7.81;118.99
64032;DHT22;50278;47.796;11.968;2022-10-31T04:35:34;7.87;118.99
64032;DHT22;50278;47.796;11.968;2022-10-31T04:37:59;7.89;118.99
64032;DHT22;50278;47.796;11.968;2022-10-31T04:40:25;7.83;118.99
64032;DHT22;50278;47.796;11.968;2022-10-31T04:43:02;7.82;118.99
64032;DHT22;50278;47.796;11.968;2022-10-31T04:45:29;7.75;118.99
64032;DHT22;50278;47.796;11.968;2022-10-31T04:47:54;7.61;118.99
64032;DHT22;50278;47.796;11.968;2022-10-31T04:50:23;7.60;118.99
64032;DHT22;50278;47.796;11.968;2022-10-31T04:52:50;7.50;118.99
64032;DHT22;50278;47.796;11.968;2022-10-31T04:55:20;7.43;118.99
64032;DHT22;50278;47.796;11.968;2022-10-31T04:58:04;7.34;118.99
64032;DHT22;50278;47.796;11.968;2022-10-31T05:00:31;7.33;118.99
64032;DHT22;50278;47.796;11.968;2022-10-31T05:02:57;7.37;118.99
64032;DHT22;50278;47.796;11.968;2022-10-31T05:05:28;7.33;118.99
64032;DHT22;50278;47.796;11.968;2022-10-31T05:07:54;7.31;118.99
64032;DHT22;50278;47.796;11.968;2022-10-31T05:10:25;7.30;118.99
64032;DHT22;50278;47.796;11.968;2022-10-31T05:12:56;7.25;118.99
64032;DHT22;50278;47.796;11.968;2022-10-31T05:15:45;7.17;118.99
64032;DHT22;50278;47.796;11.968;2022-10-31T05:18:29;7.14;118.99
64032;DHT22;50278;47.796;11.968;2022-10-31T05:21:13;7.10;118.99
64032;DHT22;50278;47.796;11.968;2022-10-31T05:23:49;7.08;118.99
64032;DHT22;50278;47.796;11.968;2022-10-31T05:26:16;7.05;118.99
64032;DHT22;50278;47.796;11.968;2022-10-31T05:28:41;7.01;118.99
64032;DHT22;50278;47.796;11.968;2022-10-31T05:31:07;6.97;118.99
64032;DHT22;50278;47.796;11.968;2022-10-31T05:33:32;7.01;118.99
64032;DHT22;50278;47.796;11.968;2022-10-31T05:36:27;7.00;118.99
64032;DHT22;50278;47.796;11.968;2022-10-31T05:38:56;7.00;118.99
64032;DHT22;50278;47.796;11.968;2022-10-31T05:41:24;7.03;118.99
64032;DHT22;50278;47.796;11.968;2022-10-31T05:43:51;6.98;118.99
64032;DHT22;50278;47.796;11.968;2022-10-31T05:46:22;7.01;118.99
64032;DHT22;50278;47.796;11.968;2022-10-31T05:49:25;6.91;118.99
64032;DHT22;50278;47.796;11.968;2022-10-31T05:51:50;6.91;118.99
64032;DHT22;50278;47.796;11.968;2022-10-31T05:54:19;6.91;118.99
64032;DHT22;50278;47.796;11.968;2022-10-31T05:56:45;6.91;118.99
64032;DHT22;50278;47.796;11.968;2022-10-31T05:59:11;6.99;118.99
64032;DHT22;50278;47.796;11.968;2022-10-31T06:01:38;7.00;118.99
64032;DHT22;50278;47.796;11.968;2022-10-31T06:04:07;6.94;118.99
64032;DHT22;50278;47.796;11.968;2022-10-31T06:06:35;6.99;118.99
64032;DHT22;50278;47.796;11.968;2022-10-31T06:09:01;6.95;118.99
64032;DHT22;50278;47.796;11.968;2022-10-31T06:11:28;7.00;118.99
64032;DHT22;50278;47.796;11.968;2022-10-31T06:14:04;6.98;118.99
64032;DHT22;50278;47.796;11.968;2022-10-31T06:16:41;7.04;118.99
64032;DHT22;50278;47.796;11.968;2022-10-31T06:19:25;7.11;118.99
64032;DHT22;50278;47.796;11.968;2022-10-31T06:21:50;7.15;118.99
64032;DHT22;50278;47.796;11.968;2022-10-31T06:24:16;7.27;118.99
64032;DHT22;50278;47.796;11.968;2022-10-31T06:27:08;7.31;118.99
64032;DHT22;50278;47.796;11.968;2022-10-31T06:29:33;7.35;118.99
64032;DHT22;50278;47.796;11.968;2022-10-31T06:32:10;7.33;118.99
64032;DHT22;50278;47.796;11.968;2022-10-31T06:34:40;7.39;118.99
64032;DHT22;50278;47.796;11.968;2022-10-31T06:37:08;7.40;118.99
64032;DHT22;50278;47.796;11.968;2022-10-31T06:39:34;7.43;118.99
64032;DHT22;50278;47.796;11.968;2022-10-31T06:42:00;7.54;118.99
64032;DHT22;50278;47.796;11.968;2022-10-31T06:44:27;7.64;118.99
64032;DHT22;50278;47.796;11.968;2022-10-31T06:46:53;7.74;118.99
64032;DHT22;50278;47.796;11.968;2022-10-31T06:49:57;7.82;118.99
64032;DHT22;50278;47.796;11.968;2022-10-31T06:52:24;7.90;118.99
64032;DHT22;50278;47.796;11.968;2022-10-31T06:54:50;7.93;118.99
64032;DHT22;50278;47.796;11.968;2022-10-31T06:57:15;7.97;118.99
64032;DHT22;50278;47.796;11.968;2022-10-31T06:59:41;8.01;118.99
64032;DHT22;50278;47.796;11.968;2022-10-31T07:02:16;8.04;118.99
64032;DHT22;50278;47.796;11.968;2022-10-31T07:04:42;8.11;118.99
64032;DHT22;50278;47.796;11.968;2022-10-31T07:07:11;8.17;118.99
64032;DHT22;50278;47.796;11.968;2022-10-31T07:09:38;8.24;118.99
64032;DHT22;50278;47.796;11.968;2022-10-31T07:12:04;8.29;118.99
64032;DHT22;50278;47.796;11.968;2022-10-31T07:14:34;8.38;118.99
64032;DHT22;50278;47.796;11.968;2022-10-31T07:17:00;8.48;118.99
64032;DHT22;50278;47.796;11.968;2022-10-31T07:19:32;8.58;118.99
64032;DHT22;50278;47.796;11.968;2022-10-31T07:21:57;8.68;118.99
64032;DHT22;50278;47.796;11.968;2022-10-31T07:24:26;8.77;118.99
64032;DHT22;50278;47.796;11.968;2022-10-31T07:27:17;8.95;118.99
64032;DHT22;50278;47.796;11.968;2022-10-31T07:29:44;9.07;118.99
64032;DHT22;50278;47.796;11.968;2022-10-31T07:32:10;9.22;118.99
64032;DHT22;50278;47.796;11.968;2022-10-31T07:34:42;9.39;118.99
64032;DHT22;50278;47.796;11.968;2022-10-31T07:37:18;9.63;118.99
64032;DHT22;50278;47.796;11.968;2022-10-31T07:39:43;9.79;118.99
64032;DHT22;50278;47.796;11.968;2022-10-31T07:42:09;9.95;118.99
64032;DHT22;50278;47.796;11.968;2022-10-31T07:44:36;10.07;118.99
64032;DHT22;50278;47.796;11.968;2022-10-31T07:47:13;10.22;118.99
64032;DHT22;50278;47.796;11.968;2022-10-31T07:49:57;10.38;118.99
64032;DHT22;50278;47.796;11.968;2022-10-31T07:52:42;10.55;118.99
64032;DHT22;50278;47.796;11.968;2022-10-31T07:55:40;10.70;118.99
64032;DHT22;50278;47.796;11.968;2022-10-31T07:58:10;10.83;118.99
64032;DHT22;50278;47.796;11.968;2022-10-31T08:00:39;11.00;118.99
64032;DHT22;50278;47.796;11.968;2022-10-31T08:03:13;11.17;118.99
64032;DHT22;50278;47.796;11.968;2022-10-31T08:05:57;11.31;118.99
64032;DHT22;50278;47.796;11.968;2022-10-31T08:08:33;11.46;118.99
64032;DHT22;50278;47.796;11.968;2022-10-31T08:10:59;11.53;118.99
64032;DHT22;50278;47.796;11.968;2022-10-31T08:13:25;11.64;118.99
64032;DHT22;50278;47.796;11.968;2022-10-31T08:15:52;11.66;118.99
64032;DHT22;50278;47.796;11.968;2022-10-31T08:18:23;11.71;118.99
64032;DHT22;50278;47.796;11.968;2022-10-31T08:20:49;11.70;118.99
64032;DHT22;50278;47.796;11.968;2022-10-31T08:23:15;11.73;118.99
64032;DHT22;50278;47.796;11.968;2022-10-31T08:25:42;11.76;118.99
64032;DHT22;50278;47.796;11.968;2022-10-31T08:28:09;11.81;118.99
64032;DHT22;50278;47.796;11.968;2022-10-31T08:30:37;11.85;118.99
64032;DHT22;50278;47.796;11.968;2022-10-31T08:33:21;11.96;118.99
64032;DHT22;50278;47.796;11.968;2022-10-31T08:36:05;12.04;118.99
64032;DHT22;50278;47.796;11.968;2022-10-31T08:38:50;12.12;118.99
64032;DHT22;50278;47.796;11.968;2022-10-31T08:41:16;12.22;118.99
64032;DHT22;50278;47.796;11.968;2022-10-31T08:43:41;12.36;118.99
64032;DHT22;50278;47.796;11.968;2022-10-31T08:46:07;12.37;118.99
64032;DHT22;50278;47.796;11.968;2022-10-31T08:48:33;12.49;118.99
64032;DHT22;50278;47.796;11.968;2022-10-31T08:51:00;12.64;118.99
64032;DHT22;50278;47.796;11.968;2022-10-31T08:53:27;12.72;118.99
64032;DHT22;50278;47.796;11.968;2022-10-31T08:56:10;12.79;118.99
64032;DHT22;50278;47.796;11.968;2022-10-31T08:58:35;12.99;118.99
64032;DHT22;50278;47.796;11.968;2022-10-31T09:01:01;13.10;118.99
64032;DHT22;50278;47.796;11.968;2022-10-31T09:03:29;13.26;118.99
64032;DHT22;50278;47.796;11.968;2022-10-31T09:05:58;13.35;118.99
64032;DHT22;50278;47.796;11.968;2022-10-31T09:08:26;13.45;118.99
64032;DHT22;50278;47.796;11.968;2022-10-31T09:10:56;13.63;118.99
64032;DHT22;50278;47.796;11.968;2022-10-31T09:13:41;13.64;118.99
64032;DHT22;50278;47.796;11.968;2022-10-31T09:16:25;13.91;118.99
64032;DHT22;50278;47.796;11.968;2022-10-31T09:18:51;14.13;118.99
64032;DHT22;50278;47.796;11.968;2022-10-31T09:21:16;14.05;118.99
64032;DHT22;50278;47.796;11.968;2022-10-31T09:23:42;13.99;118.99
64032;DHT22;50278;47.796;11.968;2022-10-31T09:26:08;14.25;118.99
64032;DHT22;50278;47.796;11.968;2022-10-31T09:28:36;14.56;118.99
64032;DHT22;50278;47.796;11.968;2022-10-31T09:31:11;14.75;118.99
64032;DHT22;50278;47.796;11.968;2022-10-31T09:34:03;14.93;118.99
64032;DHT22;50278;47.796;11.968;2022-10-31T09:36:35;15.07;118.99
64032;DHT22;50278;47.796;11.968;2022-10-31T09:39:02;15.13;118.99
64032;DHT22;50278;47.796;11.968;2022-10-31T09:41:56;15.40;118.99
64032;DHT22;50278;47.796;11.968;2022-10-31T09:47:32;15.46;118.99
64032;DHT22;50278;47.796;11.968;2022-10-31T09:50:25;15.80;118.99
64032;DHT22;50278;47.796;11.968;2022-10-31T09:53:03;15.76;118.99
64032;DHT22;50278;47.796;11.968;2022-10-31T09:55:40;15.80;118.99
64032;DHT22;50278;47.796;11.968;2022-10-31T09:58:23;15.97;118.99
64032;DHT22;50278;47.796;11.968;2022-10-31T10:00:50;16.04;118.99
64032;DHT22;50278;47.796;11.968;2022-10-31T10:06:02;16.16;118.99
64032;DHT22;50278;47.796;11.968;2022-10-31T10:08:49;16.36;118.99
64032;DHT22;50278;47.796;11.968;2022-10-31T10:17:57;16.28;118.99
64032;DHT22;50278;47.796;11.968;2022-10-31T10:20:55;16.62;118.99
64032;DHT22;50278;47.796;11.968;2022-10-31T10:26:38;16.90;118.99
64032;DHT22;50278;47.796;11.968;2022-10-31T10:32:19;17.29;118.99
64032;DHT22;50278;47.796;11.968;2022-10-31T10:34:51;17.67;118.99
64032;DHT22;50278;47.796;11.968;2022-10-31T10:37:25;17.53;118.99
64032;DHT22;50278;47.796;11.968;2022-10-31T10:39:55;17.59;118.99
64032;DHT22;50278;47.796;11.968;2022-10-31T10:42:23;17.89;118.99
64032;DHT22;50278;47.796;11.968;2022-10-31T10:45:17;18.08;118.99
64032;DHT22;50278;47.796;11.968;2022-10-31T10:48:15;18.07;118.99
64032;DHT22;50278;47.796;11.968;2022-10-31T10:50:47;18.39;118.99
64032;DHT22;50278;47.796;11.968;2022-10-31T10:53:53;18.11;118.99
64032;DHT22;50278;47.796;11.968;2022-10-31T10:59:30;18.10;118.99
64032;DHT22;50278;47.796;11.968;2022-10-31T11:01:57;18.09;118.99
64032;DHT22;50278;47.796;11.968;2022-10-31T11:04:30;18.08;118.99
64032;DHT22;50278;47.796;11.968;2022-10-31T11:07:04;17.81;118.99
64032;DHT22;50278;47.796;11.968;2022-10-31T11:09:30;17.82;118.99
64032;DHT22;50278;47.796;11.968;2022-10-31T11:11:57;17.85;118.99
64032;DHT22;50278;47.796;11.968;2022-10-31T11:14:24;17.93;118.99
64032;DHT22;50278;47.796;11.968;2022-10-31T11:17:17;17.82;118.99
64032;DHT22;50278;47.796;11.968;2022-10-31T11:19:44;17.81;118.99
64032;DHT22;50278;47.796;11.968;2022-10-31T11:22:16;17.73;118.99
64032;DHT22;50278;47.796;11.968;2022-10-31T11:24:42;17.82;118.99
64032;DHT22;50278;47.796;11.968;2022-10-31T11:27:20;17.92;118.99
64032;DHT22;50278;47.796;11.968;2022-10-31T11:29:46;17.90;118.99
64032;DHT22;50278;47.796;11.968;2022-10-31T11:32:21;17.78;118.99
64032;DHT22;50278;47.796;11.968;2022-10-31T11:34:50;17.85;118.99
64032;DHT22;50278;47.796;11.968;2022-10-31T11:37:28;17.94;118.99
64032;DHT22;50278;47.796;11.968;2022-10-31T11:39:59;17.96;118.99
64032;DHT22;50278;47.796;11.968;2022-10-31T11:42:37;17.97;118.99
64032;DHT22;50278;47.796;11.968;2022-10-31T11:45:13;17.98;118.99
64032;DHT22;50278;47.796;11.968;2022-10-31T11:47:42;18.03;118.99
64032;DHT22;50278;47.796;11.968;2022-10-31T11:50:11;17.92;118.99
64032;DHT22;50278;47.796;11.968;2022-10-31T11:52:40;18.08;118.99
64032;DHT22;50278;47.796;11.968;2022-10-31T11:57:48;18.07;118.99
64032;DHT22;50278;47.796;11.968;2022-10-31T12:00:26;18.13;118.99
64032;DHT22;50278;47.796;11.968;2022-10-31T12:03:27;18.06;118.99
64032;DHT22;50278;47.796;11.968;2022-10-31T12:05:58;18.21;118.99
64032;DHT22;50278;47.796;11.968;2022-10-31T12:08:31;18.28;118.99
64032;DHT22;50278;47.796;11.968;2022-10-31T12:36:14;19.42;118.99
64032;DHT22;50278;47.796;11.968;2022-10-31T12:38:54;19.10;118.99
64032;DHT22;50278;47.796;11.968;2022-10-31T12:42:13;19.01;118.99
64032;DHT22;50278;47.796;11.968;2022-10-31T12:44:47;18.94;118.99
64032;DHT22;50278;47.796;11.968;2022-10-31T12:53:17;18.49;118.99
64032;DHT22;50278;47.796;11.968;2022-10-31T12:55:55;18.23;118.99
64032;DHT22;50278;47.796;11.968;2022-10-31T12:58:31;18.22;118.99
64032;DHT22;50278;47.796;11.968;2022-10-31T13:01:29;18.09;118.99
64032;DHT22;50278;47.796;11.968;2022-10-31T13:04:12;17.80;118.99
64032;DHT22;50278;47.796;11.968;2022-10-31T13:06:49;17.84;118.99
64032;DHT22;50278;47.796;11.968;2022-10-31T13:12:17;17.78;118.99
64032;DHT22;50278;47.796;11.968;2022-10-31T13:14:49;17.92;118.99
64032;DHT22;50278;47.796;11.968;2022-10-31T13:20:29;18.13;118.99
64032;DHT22;50278;47.796;11.968;2022-10-31T13:25:54;18.53;118.99
64032;DHT22;50278;47.796;11.968;2022-10-31T13:28:35;18.73;118.99
64032;DHT22;50278;47.796;11.968;2022-10-31T13:31:01;18.55;118.99
64032;DHT22;50278;47.796;11.968;2022-10-31T13:33:31;18.95;118.99
64032;DHT22;50278;47.796;11.968;2022-10-31T13:42:20;19.81;118.99
64032;DHT22;50278;47.796;11.968;2022-10-31T13:44:47;20.28;118.99
64032;DHT22;50278;47.796;11.968;2022-10-31T13:47:27;20.95;118.99
64032;DHT22;50278;47.796;11.968;2022-10-31T13:50:25;21.67;118.99
64032;DHT22;50278;47.796;11.968;2022-10-31T13:52:49;22.07;118.99
64032;DHT22;50278;47.796;11.968;2022-10-31T13:55:35;22.19;118.99
64032;DHT22;50278;47.796;11.968;2022-10-31T13:58:04;23.00;118.99
64032;DHT22;50278;47.796;11.968;2022-10-31T14:00:30;23.90;118.99
64032;DHT22;50278;47.796;11.968;2022-10-31T14:03:00;23.49;118.99
64032;DHT22;50278;47.796;11.968;2022-10-31T14:05:31;24.18;118.99
64032;DHT22;50278;47.796;11.968;2022-10-31T14:07:59;24.97;118.99
64032;DHT22;50278;47.796;11.968;2022-10-31T14:13:30;23.97;118.99
64032;DHT22;50278;47.796;11.968;2022-10-31T14:16:00;25.04;118.99
64032;DHT22;50278;47.796;11.968;2022-10-31T14:20:58;23.38;118.99
64032;DHT22;50278;47.796;11.968;2022-10-31T14:28:42;20.57;118.99
64032;DHT22;50278;47.796;11.968;2022-10-31T14:33:53;20.01;118.99
64032;DHT22;50278;47.796;11.968;2022-10-31T14:36:28;19.88;118.99
64032;DHT22;50278;47.796;11.968;2022-10-31T14:39:13;19.38;118.99
64032;DHT22;50278;47.796;11.968;2022-10-31T14:41:50;19.39;118.99
64032;DHT22;50278;47.796;11.968;2022-10-31T14:47:36;18.98;118.99
64032;DHT22;50278;47.796;11.968;2022-10-31T14:53:02;18.86;118.99
64032;DHT22;50278;47.796;11.968;2022-10-31T14:55:29;18.65;118.99
64032;DHT22;50278;47.796;11.968;2022-10-31T14:58:02;18.28;118.99
64032;DHT22;50278;47.796;11.968;2022-10-31T15:00:31;17.63;118.99
64032;DHT22;50278;47.796;11.968;2022-10-31T15:03:18;17.37;118.99
64032;DHT22;50278;47.796;11.968;2022-10-31T15:05:52;17.22;118.99
64032;DHT22;50278;47.796;11.968;2022-10-31T15:11:26;16.76;118.99
64032;DHT22;50278;47.796;11.968;2022-10-31T15:13:57;16.40;118.99
64032;DHT22;50278;47.796;11.968;2022-10-31T15:16:31;16.22;118.99
64032;DHT22;50278;47.796;11.968;2022-10-31T15:19:04;15.68;118.99
64032;DHT22;50278;47.796;11.968;2022-10-31T15:21:30;15.29;118.99
64032;DHT22;50278;47.796;11.968;2022-10-31T15:23:58;15.11;118.99
64032;DHT22;50278;47.796;11.968;2022-10-31T15:26:32;15.16;118.99
64032;DHT22;50278;47.796;11.968;2022-10-31T15:29:04;14.70;118.99
64032;DHT22;50278;47.796;11.968;2022-10-31T15:31:30;14.48;118.99
64032;DHT22;50278;47.796;11.968;2022-10-31T15:34:02;14.19;118.99
64032;DHT22;50278;47.796;11.968;2022-10-31T15:36:28;13.79;118.99
64032;DHT22;50278;47.796;11.968;2022-10-31T15:38:56;13.66;118.99
64032;DHT22;50278;47.796;11.968;2022-10-31T15:41:42;13.68;118.99
64032;DHT22;50278;47.796;11.968;2022-10-31T15:44:16;13.54;118.99
64032;DHT22;50278;47.796;11.968;2022-10-31T15:46:55;13.31;118.99
64032;DHT22;50278;47.796;11.968;2022-10-31T15:49:34;13.10;118.99
64032;DHT22;50278;47.796;11.968;2022-10-31T15:52:46;12.95;118.99
64032;DHT22;50278;47.796;11.968;2022-10-31T15:54:54;12.73;118.99
64032;DHT22;50278;47.796;11.968;2022-10-31T15:57:25;12.76;118.99
64032;DHT22;50278;47.796;11.968;2022-10-31T15:59:54;12.66;118.99
64032;DHT22;50278;47.796;11.968;2022-10-31T16:02:25;12.59;118.99
64032;DHT22;50278;47.796;11.968;2022-10-31T16:05:00;12.60;118.99
64032;DHT22;50278;47.796;11.968;2022-10-31T16:07:28;12.35;118.99
64032;DHT22;50278;47.796;11.968;2022-10-31T16:10:01;12.13;118.99
64032;DHT22;50278;47.796;11.968;2022-10-31T16:12:45;12.08;118.99
64032;DHT22;50278;47.796;11.968;2022-10-31T16:15:14;12.11;118.99
64032;DHT22;50278;47.796;11.968;2022-10-31T16:17:43;12.00;118.99
64032;DHT22;50278;47.796;11.968;2022-10-31T16:20:19;11.90;118.99
64032;DHT22;50278;47.796;11.968;2022-10-31T16:22:48;11.82;118.99
64032;DHT22;50278;47.796;11.968;2022-10-31T16:25:19;11.85;118.99
64032;DHT22;50278;47.796;11.968;2022-10-31T16:27:51;11.81;118.99
64032;DHT22;50278;47.796;11.968;2022-10-31T16:30:30;11.69;118.99
64032;DHT22;50278;47.796;11.968;2022-10-31T16:33:00;11.70;118.99
64032;DHT22;50278;47.796;11.968;2022-10-31T16:35:27;11.66;118.99
64032;DHT22;50278;47.796;11.968;2022-10-31T16:37:53;11.61;118.99
64032;DHT22;50278;47.796;11.968;2022-10-31T16:40:19;11.62;118.99
64032;DHT22;50278;47.796;11.968;2022-10-31T16:42:46;11.60;118.99
64032;DHT22;50278;47.796;11.968;2022-10-31T16:45:26;11.58;118.99
64032;DHT22;50278;47.796;11.968;2022-10-31T16:47:52;11.51;118.99
64032;DHT22;50278;47.796;11.968;2022-10-31T16:50:23;11.52;118.99
64032;DHT22;50278;47.796;11.968;2022-10-31T16:52:50;11.47;118.99
64032;DHT22;50278;47.796;11.968;2022-10-31T16:55:17;11.45;118.99
64032;DHT22;50278;47.796;11.968;2022-10-31T16:57:50;11.69;118.99
64032;DHT22;50278;47.796;11.968;2022-10-31T17:00:24;11.88;118.99
64032;DHT22;50278;47.796;11.968;2022-10-31T17:02:53;11.71;118.99
64032;DHT22;50278;47.796;11.968;2022-10-31T17:05:21;11.59;118.99
64032;DHT22;50278;47.796;11.968;2022-10-31T17:07:47;11.41;118.99
64032;DHT22;50278;47.796;11.968;2022-10-31T17:10:14;11.37;118.99
64032;DHT22;50278;47.796;11.968;2022-10-31T17:12:45;11.42;118.99
64032;DHT22;50278;47.796;11.968;2022-10-31T17:15:36;11.29;118.99
64032;DHT22;50278;47.796;11.968;2022-10-31T17:18:02;11.20;118.99
64032;DHT22;50278;47.796;11.968;2022-10-31T17:20:29;11.08;118.99
64032;DHT22;50278;47.796;11.968;2022-10-31T17:22:57;11.01;118.99
64032;DHT22;50278;47.796;11.968;2022-10-31T17:25:25;10.98;118.99
64032;DHT22;50278;47.796;11.968;2022-10-31T17:27:51;10.94;118.99
64032;DHT22;50278;47.796;11.968;2022-10-31T17:30:18;10.97;118.99
64032;DHT22;50278;47.796;11.968;2022-10-31T17:32:45;11.10;118.99